Time;durP1;ratioP1;P1;durP2;ratioP2;P2;SDS_P1;SDS_P2;PMS_P1;PMS_P2;Temp;Humidity;BMP_temperature;BMP_pressure;BME280_temperature;BME280_humidity;BME280_pressure;Samples;Min_cycle;Max_cycle;Signal;HPM_P1;HPM_P2
2023/01/04 00:00:09;;;;;;;;;1.50;1.50;;;;;-146.50;100.00;59256.41;5074759;28;46386;-79
2023/01/04 00:02:34;;;;;;;;;0.75;0.75;;;;;-146.50;100.00;59256.41;5074653;27;45457;-79
2023/01/04 00:05:00;;;;;;;;;2.50;1.00;;;;;-146.50;100.00;59256.41;5072608;28;45392;-79
2023/01/04 00:07:28;;;;;;;;;2.00;2.00;;;;;-146.50;100.00;59256.41;5074819;27;45405;-79
2023/01/04 00:09:53;;;;;;;;;1.00;1.00;;;;;-146.50;100.00;59256.41;5074793;27;45501;-79
2023/01/04 00:12:18;;;;;;;;;1.75;1.75;;;;;-146.50;100.00;59256.41;5074413;27;45501;-79
2023/01/04 00:14:44;;;;;;;;;2.75;2.00;;;;;-146.50;100.00;59256.41;5074168;27;45359;-79
2023/01/04 00:17:09;;;;;;;;;3.00;0.75;;;;;-146.50;100.00;59256.41;5074739;27;45404;-79
2023/01/04 00:19:34;;;;;;;;;0.50;0.25;;;;;-146.50;100.00;59256.41;5074431;28;45469;-79
2023/01/04 00:22:00;;;;;;;;;1.25;1.00;;;;;-146.50;100.00;59256.41;5073769;28;45503;-79
2023/01/04 00:24:25;;;;;;;;;1.00;1.00;;;;;-146.50;100.00;59256.41;5073559;28;45421;-80
2023/01/04 00:26:50;;;;;;;;;1.00;1.00;;;;;-146.50;100.00;59256.41;5074458;27;45312;-79
2023/01/04 00:29:16;;;;;;;;;4.00;3.00;;;;;-146.50;100.00;59256.41;5074011;27;46272;-79
2023/01/04 00:31:43;;;;;;;;;0.75;0.75;;;;;-146.50;100.00;59256.41;5074429;28;45270;-78
2023/01/04 00:34:12;;;;;;;;;2.25;2.25;;;;;-146.50;100.00;59256.41;5074258;27;45381;-79
2023/01/04 00:36:38;;;;;;;;;1.67;0.00;;;;;-146.50;100.00;59256.41;5074346;27;45582;-78
2023/01/04 00:39:06;;;;;;;;;2.00;2.00;;;;;-146.50;100.00;59256.41;5074035;27;47044;-79
2023/01/04 00:41:37;;;;;;;;;1.00;0.50;;;;;-146.50;100.00;59256.41;5074129;27;45328;-78
2023/01/04 00:44:04;;;;;;;;;1.00;0.00;;;;;-146.50;100.00;59256.41;5073760;27;45431;-79
2023/01/04 00:46:31;;;;;;;;;1.25;1.25;;;;;-146.50;100.00;59256.41;5073903;27;45533;-78
2023/01/04 00:48:57;;;;;;;;;1.25;1.25;;;;;-146.50;100.00;59256.41;5076095;27;46354;-78
2023/01/04 00:51:22;;;;;;;;;1.67;1.67;;;;;-146.50;100.00;59256.41;5076013;28;45346;-78
2023/01/04 00:53:47;;;;;;;;;1.00;1.00;;;;;-146.50;100.00;59256.41;5077565;27;45407;-77
2023/01/04 00:56:13;;;;;;;;;2.00;2.00;;;;;-146.50;100.00;59256.41;5077808;27;45331;-78
2023/01/04 00:58:38;;;;;;;;;1.00;1.00;;;;;-146.50;100.00;59256.41;5075842;27;47069;-78
2023/01/04 01:01:05;;;;;;;;;1.00;1.00;;;;;-146.50;100.00;59256.41;5076899;27;45357;-77
2023/01/04 01:03:30;;;;;;;;;2.00;2.00;;;;;-146.50;100.00;59256.41;5076711;27;45558;-78
2023/01/04 01:06:03;;;;;;;;;1.00;1.00;;;;;-146.50;100.00;59256.41;5077000;27;45408;-78
2023/01/04 01:08:29;;;;;;;;;1.00;1.00;;;;;-146.50;100.00;59256.41;5077627;27;45346;-79
2023/01/04 01:10:55;;;;;;;;;1.67;1.67;;;;;-146.50;100.00;59256.41;5077386;27;45743;-78
2023/01/04 01:13:21;;;;;;;;;2.25;1.25;;;;;-146.50;100.00;59256.41;5076443;27;45540;-78
2023/01/04 01:15:47;;;;;;;;;1.00;1.00;;;;;-146.50;100.00;59256.41;5077298;28;45381;-77
2023/01/04 01:18:13;;;;;;;;;2.00;2.00;;;;;-146.50;100.00;59256.41;5077079;27;46262;-78
2023/01/04 01:20:45;;;;;;;;;1.50;1.50;;;;;-146.50;100.00;59256.41;5077213;28;45343;-77
2023/01/04 01:23:13;;;;;;;;;1.25;1.00;;;;;-146.50;100.00;59256.41;5077504;28;45347;-77
2023/01/04 01:25:39;;;;;;;;;1.50;1.25;;;;;-146.50;100.00;59256.41;5078176;28;45414;-78
2023/01/04 01:28:04;;;;;;;;;2.00;2.00;;;;;-146.50;100.00;59256.41;5077251;28;48268;-77
2023/01/04 01:30:30;;;;;;;;;2.00;2.00;;;;;-146.50;100.00;59256.41;5078042;28;45379;-77
2023/01/04 01:32:55;;;;;;;;;4.00;1.00;;;;;-146.50;100.00;59256.41;5079634;27;45356;-78
2023/01/04 01:35:21;;;;;;;;;0.50;0.50;;;;;-146.50;100.00;59256.41;5078066;27;45356;-78
2023/01/04 01:37:46;;;;;;;;;1.75;1.75;;;;;-146.50;100.00;59256.41;5076731;27;46367;-78
2023/01/04 01:40:11;;;;;;;;;2.00;2.00;;;;;-146.50;100.00;59256.41;5075904;28;45383;-77
2023/01/04 01:42:37;;;;;;;;;2.00;2.00;;;;;-146.50;100.00;59256.41;5076957;27;45845;-76
2023/01/04 01:45:26;;;;;;;;;3.00;1.50;;;;;-146.50;100.00;59256.41;5076671;28;45421;-77
2023/01/04 01:47:58;;;;;;;;;1.75;1.50;;;;;-146.50;100.00;59256.41;5076713;27;47277;-78
2023/01/04 01:50:32;;;;;;;;;2.75;2.75;;;;;-146.50;100.00;59256.41;5076548;27;45398;-78
2023/01/04 01:52:59;;;;;;;;;1.25;1.25;;;;;-146.50;100.00;59256.41;5076693;28;45326;-77
2023/01/04 01:55:27;;;;;;;;;2.00;2.00;;;;;-146.50;100.00;59256.41;5076434;27;45508;-77
2023/01/04 01:57:54;;;;;;;;;3.33;1.00;;;;;-146.50;100.00;59256.41;5076020;27;46544;-78
2023/01/04 02:00:20;;;;;;;;;1.00;1.00;;;;;-146.50;100.00;59256.41;5075741;27;45365;-78
2023/01/04 02:02:59;;;;;;;;;5.00;2.00;;;;;-146.50;100.00;59256.41;5058406;28;45374;-77
2023/01/04 02:05:27;;;;;;;;;3.50;1.75;;;;;-146.50;100.00;59256.41;5076389;27;45477;-77
2023/01/04 02:07:53;;;;;;;;;0.33;0.33;;;;;-146.50;100.00;59256.41;5076197;27;46128;-78
2023/01/04 02:10:19;;;;;;;;;2.75;1.25;;;;;-146.50;100.00;59256.41;5076192;27;45437;-77
2023/01/04 02:12:45;;;;;;;;;2.00;2.00;;;;;-146.50;100.00;59256.41;5075178;28;45357;-78
2023/01/04 02:15:11;;;;;;;;;0.50;0.50;;;;;-146.50;100.00;59256.41;5075802;27;45388;-78
2023/01/04 02:18:00;;;;;;;;;1.50;1.00;;;;;-146.50;100.00;59256.41;5075849;28;46222;-78
2023/01/04 02:20:42;;;;;;;;;1.75;1.75;;;;;-146.50;100.00;59256.41;5076444;27;45600;-78
2023/01/04 02:23:33;;;;;;;;;1.00;1.00;;;;;-146.50;100.00;59256.41;5076152;27;45242;-78
2023/01/04 02:26:23;;;;;;;;;1.00;1.00;;;;;-146.50;100.00;59256.41;5075966;27;45436;-77
2023/01/04 02:29:04;;;;;;;;;2.33;2.00;;;;;-146.50;100.00;59256.41;5075726;27;46053;-77
2023/01/04 02:31:50;;;;;;;;;1.00;1.00;;;;;-146.50;100.00;59256.41;5076386;27;45402;-77
2023/01/04 02:34:41;;;;;;;;;2.00;2.00;;;;;-146.50;100.00;59256.41;5076346;27;45411;-77
2023/01/04 02:37:25;;;;;;;;;0.50;0.25;;;;;-146.50;100.00;59256.41;5065431;28;45389;-77
2023/01/04 02:40:02;;;;;;;;;2.25;1.00;;;;;-146.50;100.00;59256.41;5075793;27;46375;-77
2023/01/04 02:45:27;;;;;;;;;2.00;2.00;;;;;-146.50;100.00;59256.41;5076233;28;45400;-76
2023/01/04 02:50:54;;;;;;;;;3.67;1.00;;;;;-146.50;100.00;59256.41;5074997;28;45290;-78
2023/01/04 02:53:25;;;;;;;;;2.75;1.00;;;;;-146.50;100.00;59256.41;5074465;28;45462;-77
2023/01/04 02:55:59;;;;;;;;;0.75;0.75;;;;;-146.50;100.00;59256.41;5075714;28;45278;-77
2023/01/04 02:58:47;;;;;;;;;1.25;1.25;;;;;-146.50;100.00;59256.41;5075464;27;45440;-77
2023/01/04 03:07:24;;;;;;;;;3.50;1.25;;;;;-146.50;100.00;59256.41;5075305;28;45301;-77
2023/01/04 03:09:59;;;;;;;;;1.00;1.00;;;;;-146.50;100.00;59256.41;5073930;28;45330;-76
2023/01/04 03:12:32;;;;;;;;;1.33;1.00;;;;;-146.50;100.00;59256.41;5075323;27;45418;-77
2023/01/04 03:15:09;;;;;;;;;0.25;0.00;;;;;-146.50;100.00;59256.41;5074698;28;45395;-77
2023/01/04 03:17:41;;;;;;;;;0.25;0.25;;;;;-146.50;100.00;59256.41;5075529;28;45472;-77
2023/01/04 03:20:10;;;;;;;;;0.00;0.00;;;;;-146.50;100.00;59256.41;5075358;28;45446;-77
2023/01/04 03:37:29;;;;;;;;;1.00;1.00;;;;;-146.50;100.00;59256.41;5075413;28;45574;-77
2023/01/04 03:48:47;;;;;;;;;1.33;0.00;;;;;-146.50;100.00;59256.41;5074718;28;45379;-78
2023/01/04 03:51:24;;;;;;;;;1.00;1.00;;;;;-146.50;100.00;59256.41;5074928;27;45399;-77
2023/01/04 03:54:02;;;;;;;;;3.00;1.50;;;;;-146.50;100.00;59256.41;5074578;27;45409;-77
2023/01/04 03:56:30;;;;;;;;;1.00;1.00;;;;;-146.50;100.00;59256.41;5074108;27;45353;-77
2023/01/04 03:58:56;;;;;;;;;0.00;0.00;;;;;-146.50;100.00;59256.41;5074329;28;45349;-78
2023/01/04 04:01:24;;;;;;;;;0.00;0.00;;;;;-146.50;100.00;59256.41;5074518;27;45488;-78
2023/01/04 04:09:17;;;;;;;;;0.00;0.00;;;;;-146.50;100.00;59256.41;5072193;28;45579;-77
2023/01/04 04:11:43;;;;;;;;;1.00;1.00;;;;;-146.50;100.00;59256.41;5073575;27;45406;-77
2023/01/04 04:14:08;;;;;;;;;0.50;0.00;;;;;-146.50;100.00;59256.41;5073539;28;45563;-77
2023/01/04 04:16:33;;;;;;;;;0.50;0.50;;;;;-146.50;100.00;59256.41;5073425;28;45921;-78
2023/01/04 04:18:59;;;;;;;;;0.75;0.00;;;;;-146.50;100.00;59256.41;5072360;27;46196;-77
2023/01/04 04:21:24;;;;;;;;;0.50;0.50;;;;;-146.50;100.00;59256.41;5073933;28;45493;-77
2023/01/04 04:23:49;;;;;;;;;0.00;0.00;;;;;-146.50;100.00;59256.41;5076904;27;45509;-77
2023/01/04 04:26:15;;;;;;;;;0.00;0.00;;;;;-146.50;100.00;59256.41;5077454;28;45463;-77
2023/01/04 04:28:41;;;;;;;;;1.00;1.00;;;;;-146.50;100.00;59256.41;5077430;27;45559;-78
2023/01/04 04:31:07;;;;;;;;;0.33;0.00;;;;;-146.50;100.00;59256.41;5093792;27;45500;-77
2023/01/04 04:33:33;;;;;;;;;0.67;0.00;;;;;-146.50;100.00;59256.41;5075195;28;45396;-76
2023/01/04 04:35:58;;;;;;;;;2.67;1.00;;;;;-146.50;100.00;59256.41;5076309;28;45693;-76
2023/01/04 04:38:23;;;;;;;;;0.00;0.00;;;;;-146.50;100.00;59256.41;5078284;27;45367;-75
2023/01/04 04:43:33;;;;;;;;;0.00;0.00;;;;;-146.50;100.00;59256.41;5076489;28;45220;-77
2023/01/04 04:45:59;;;;;;;;;0.67;0.67;;;;;-146.50;100.00;59256.41;5078592;27;46168;-77
2023/01/04 04:48:24;;;;;;;;;0.67;0.67;;;;;-146.50;100.00;59256.41;5076043;28;46211;-77
2023/01/04 04:50:49;;;;;;;;;1.33;0.33;;;;;-146.50;100.00;59256.41;5078146;28;45233;-77
2023/01/04 04:53:15;;;;;;;;;0.00;0.00;;;;;-146.50;100.00;59256.41;5076068;28;45421;-76
2023/01/04 04:55:40;;;;;;;;;0.00;0.00;;;;;-146.50;100.00;59256.41;5075951;28;45913;-76
2023/01/04 04:58:05;;;;;;;;;0.00;0.00;;;;;-146.50;100.00;59256.41;5077141;28;45293;-76
2023/01/04 05:00:31;;;;;;;;;0.33;0.33;;;;;-146.50;100.00;59256.41;5076188;27;45541;-76
2023/01/04 05:03:00;;;;;;;;;1.00;0.00;;;;;-146.50;100.00;59256.41;5075485;28;45538;-77
2023/01/04 05:05:26;;;;;;;;;1.00;0.00;;;;;-146.50;100.00;59256.41;5075736;28;45513;-76
2023/01/04 05:07:52;;;;;;;;;1.00;0.00;;;;;-146.50;100.00;59256.41;5076621;28;45477;-77
2023/01/04 05:10:17;;;;;;;;;0.00;0.00;;;;;-146.50;100.00;59256.41;5076006;28;45808;-77
2023/01/04 05:13:01;;;;;;;;;1.00;1.00;;;;;-146.50;100.00;59256.41;5075827;28;45480;-76
2023/01/04 05:15:35;;;;;;;;;0.00;0.00;;;;;-146.50;100.00;59256.41;5076680;27;47174;-76
2023/01/04 05:18:00;;;;;;;;;0.00;0.00;;;;;-146.50;100.00;59256.41;5075033;28;45492;-77
2023/01/04 05:20:26;;;;;;;;;0.00;0.00;;;;;-146.50;100.00;59256.41;5076788;28;45415;-77
2023/01/04 05:22:51;;;;;;;;;1.00;0.00;;;;;-146.50;100.00;59256.41;5074171;27;45460;-77
2023/01/04 05:25:17;;;;;;;;;0.00;0.00;;;;;-146.50;100.00;59256.41;5076207;27;45672;-76
2023/01/04 05:27:43;;;;;;;;;1.00;0.67;;;;;-146.50;100.00;59256.41;5076657;28;45413;-78
2023/01/04 05:32:54;;;;;;;;;0.00;0.00;;;;;-146.50;100.00;59256.41;5074047;28;45350;-76
2023/01/04 05:35:19;;;;;;;;;1.00;1.00;;;;;-146.50;100.00;59256.41;5074913;27;46112;-77
2023/01/04 05:37:45;;;;;;;;;0.00;0.00;;;;;-146.50;100.00;59256.41;5076208;27;45294;-78
2023/01/04 05:40:10;;;;;;;;;0.00;0.00;;;;;-146.50;100.00;59256.41;5076528;28;45275;-78
2023/01/04 05:42:36;;;;;;;;;0.00;0.00;;;;;-146.50;100.00;59256.41;5075090;28;45403;-77
2023/01/04 05:45:01;;;;;;;;;0.67;0.67;;;;;-146.50;100.00;59256.41;5076060;28;47304;-77
2023/01/04 05:47:27;;;;;;;;;1.00;1.00;;;;;-146.50;100.00;59256.41;5074901;28;45400;-76
2023/01/04 05:49:53;;;;;;;;;0.00;0.00;;;;;-146.50;100.00;59256.41;5076141;28;45354;-77
2023/01/04 05:52:19;;;;;;;;;0.00;0.00;;;;;-146.50;100.00;59256.41;5076186;28;45365;-77
2023/01/04 05:54:44;;;;;;;;;0.00;0.00;;;;;-146.50;100.00;59256.41;5109060;27;47289;-77
2023/01/04 05:57:10;;;;;;;;;0.00;0.00;;;;;-146.50;100.00;59256.41;5076183;28;45445;-76
2023/01/04 05:59:36;;;;;;;;;0.00;0.00;;;;;-146.50;100.00;59256.41;5076978;27;45414;-77
2023/01/04 06:02:02;;;;;;;;;0.00;0.00;;;;;-146.50;100.00;59256.41;5076161;28;45328;-77
2023/01/04 06:04:28;;;;;;;;;0.00;0.00;;;;;-146.50;100.00;59256.41;5075921;28;46176;-77
2023/01/04 06:06:53;;;;;;;;;0.00;0.00;;;;;-146.50;100.00;59256.41;5072859;28;45275;-77
2023/01/04 06:09:18;;;;;;;;;0.00;0.00;;;;;-146.50;100.00;59256.41;5074622;28;45473;-78
2023/01/04 06:11:44;;;;;;;;;0.00;0.00;;;;;-146.50;100.00;59256.41;5075939;27;45408;-78
2023/01/04 06:14:09;;;;;;;;;0.00;0.00;;;;;-146.50;100.00;59256.41;5076024;28;45278;-78
2023/01/04 06:16:35;;;;;;;;;0.00;0.00;;;;;-146.50;100.00;59256.41;5075689;28;45275;-79
2023/01/04 06:19:00;;;;;;;;;0.00;0.00;;;;;-146.50;100.00;59256.41;5076398;27;45473;-78
2023/01/04 06:21:26;;;;;;;;;0.00;0.00;;;;;-146.50;100.00;59256.41;5075703;28;45350;-78
2023/01/04 06:23:52;;;;;;;;;0.00;0.00;;;;;-146.50;100.00;59256.41;5076085;27;45474;-75
2023/01/04 06:26:17;;;;;;;;;0.00;0.00;;;;;-146.50;100.00;59256.41;5075746;27;45482;-74
2023/01/04 06:28:43;;;;;;;;;0.00;0.00;;;;;-146.50;100.00;59256.41;5075503;27;45385;-76
2023/01/04 06:31:09;;;;;;;;;1.00;0.00;;;;;-146.50;100.00;59256.41;5076036;28;45510;-76
2023/01/04 06:33:35;;;;;;;;;0.00;0.00;;;;;-146.50;100.00;59256.41;5075894;28;46809;-76
2023/01/04 06:36:01;;;;;;;;;0.00;0.00;;;;;-146.50;100.00;59256.41;5075746;27;45369;-77
2023/01/04 06:38:26;;;;;;;;;0.00;0.00;;;;;-146.50;100.00;59256.41;5075864;27;45337;-76
2023/01/04 06:40:52;;;;;;;;;0.00;0.00;;;;;-146.50;100.00;59256.41;5076049;27;45327;-77
2023/01/04 06:43:17;;;;;;;;;0.00;0.00;;;;;-146.50;100.00;59256.41;5075824;27;47198;-77
2023/01/04 06:45:43;;;;;;;;;0.00;0.00;;;;;-146.50;100.00;59256.41;5074277;28;45372;-78
2023/01/04 06:48:08;;;;;;;;;0.00;0.00;;;;;-146.50;100.00;59256.41;5076178;27;45222;-79
2023/01/04 06:50:34;;;;;;;;;0.00;0.00;;;;;-146.50;100.00;59256.41;5075193;27;45361;-79
2023/01/04 06:53:00;;;;;;;;;0.00;0.00;;;;;-146.50;100.00;59256.41;5074630;27;46423;-79
2023/01/04 06:55:25;;;;;;;;;0.00;0.00;;;;;-146.50;100.00;59256.41;5063958;28;45916;-78
2023/01/04 06:57:51;;;;;;;;;0.00;0.00;;;;;-146.50;100.00;59256.41;5063845;28;45361;-79
2023/01/04 07:00:17;;;;;;;;;1.00;0.00;;;;;-146.50;100.00;59256.41;5075824;27;45654;-78
2023/01/04 07:02:42;;;;;;;;;0.00;0.00;;;;;-146.50;100.00;59256.41;5073895;28;46153;-78
2023/01/04 07:05:08;;;;;;;;;0.00;0.00;;;;;-146.50;100.00;59256.41;5073139;28;45483;-78
2023/01/04 07:07:34;;;;;;;;;0.00;0.00;;;;;-146.50;100.00;59256.41;5074552;27;45620;-78
2023/01/04 07:09:59;;;;;;;;;0.00;0.00;;;;;-146.50;100.00;59256.41;5075349;27;45404;-78
2023/01/04 07:12:25;;;;;;;;;0.00;0.00;;;;;-146.50;100.00;59256.41;5075107;27;45990;-79
2023/01/04 07:14:50;;;;;;;;;0.00;0.00;;;;;-146.50;100.00;59256.41;5075276;27;45393;-78
2023/01/04 07:17:15;;;;;;;;;0.00;0.00;;;;;-146.50;100.00;59256.41;5075616;28;45654;-78
2023/01/04 07:19:41;;;;;;;;;1.00;0.00;;;;;-146.50;100.00;59256.41;5075339;28;45447;-78
2023/01/04 07:22:06;;;;;;;;;0.00;0.00;;;;;-146.50;100.00;59256.41;5075043;28;46183;-78
2023/01/04 07:24:31;;;;;;;;;0.00;0.00;;;;;-146.50;100.00;59256.41;5075380;27;45362;-79
2023/01/04 07:27:00;;;;;;;;;1.00;0.00;;;;;-146.50;100.00;59256.41;5075561;27;45410;-78
2023/01/04 07:29:26;;;;;;;;;0.00;0.00;;;;;-146.50;100.00;59256.41;5075599;27;45420;-78
2023/01/04 07:31:52;;;;;;;;;1.00;0.00;;;;;-146.50;100.00;59256.41;5075171;27;46488;-78
2023/01/04 07:34:20;;;;;;;;;0.00;0.00;;;;;-146.50;100.00;59256.41;5075124;27;45419;-78
2023/01/04 07:36:47;;;;;;;;;0.00;0.00;;;;;-146.50;100.00;59256.41;5075441;27;45377;-79
2023/01/04 07:39:12;;;;;;;;;0.00;0.00;;;;;-146.50;100.00;59256.41;5075440;27;45371;-78
2023/01/04 07:41:39;;;;;;;;;0.00;0.00;;;;;-146.50;100.00;59256.41;5075104;28;46416;-79
2023/01/04 07:44:06;;;;;;;;;0.00;0.00;;;;;-146.50;100.00;59256.41;5075752;28;45302;-78
2023/01/04 07:46:32;;;;;;;;;4.00;1.25;;;;;-146.50;100.00;59256.41;5075368;28;45445;-79
2023/01/04 07:48:58;;;;;;;;;0.00;0.00;;;;;-146.50;100.00;59256.41;5076794;27;45416;-79
2023/01/04 07:51:23;;;;;;;;;0.00;0.00;;;;;-146.50;100.00;59256.41;5077919;27;46159;-78
2023/01/04 07:53:49;;;;;;;;;0.00;0.00;;;;;-146.50;100.00;59256.41;5078344;27;45346;-78
2023/01/04 07:56:14;;;;;;;;;0.00;0.00;;;;;-146.50;100.00;59256.41;5078538;27;45338;-77
2023/01/04 07:58:40;;;;;;;;;0.00;0.00;;;;;-146.50;100.00;59256.41;5080318;28;45443;-78
2023/01/04 08:01:12;;;;;;;;;0.00;0.00;;;;;-146.50;100.00;59256.41;5081021;27;46571;-77
2023/01/04 08:03:37;;;;;;;;;0.33;0.00;;;;;-146.50;100.00;59256.41;5079751;27;45430;-78
2023/01/04 08:06:04;;;;;;;;;0.33;0.00;;;;;-146.50;100.00;59256.41;5078886;27;45398;-78
2023/01/04 08:08:30;;;;;;;;;0.00;0.00;;;;;-146.50;100.00;59256.41;5079216;27;45403;-78
2023/01/04 08:11:00;;;;;;;;;1.00;0.00;;;;;-146.50;100.00;59256.41;5078685;28;46133;-78
2023/01/04 08:13:25;;;;;;;;;1.00;0.00;;;;;-146.50;100.00;59256.41;5078062;28;45360;-78
2023/01/04 08:15:54;;;;;;;;;0.67;0.00;;;;;-146.50;100.00;59256.41;5078197;27;45357;-77
2023/01/04 08:18:19;;;;;;;;;0.00;0.00;;;;;-146.50;100.00;59256.41;5076778;28;45476;-78
2023/01/04 08:20:45;;;;;;;;;0.00;0.00;;;;;-146.50;100.00;59256.41;5078179;28;46008;-78
2023/01/04 08:23:10;;;;;;;;;0.00;0.00;;;;;-146.50;100.00;59256.41;5076685;28;45391;-78
2023/01/04 08:25:36;;;;;;;;;0.00;0.00;;;;;-146.50;100.00;59256.41;5077372;28;45398;-80
2023/01/04 08:28:01;;;;;;;;;0.00;0.00;;;;;-146.50;100.00;59256.41;5078344;27;45487;-80
2023/01/04 08:30:26;;;;;;;;;0.67;0.67;;;;;-146.50;100.00;59256.41;5078053;27;46416;-79
2023/01/04 08:32:56;;;;;;;;;1.00;0.00;;;;;-146.50;100.00;59256.41;5077618;27;45619;-79
2023/01/04 08:35:22;;;;;;;;;1.00;1.00;;;;;-146.50;100.00;59256.41;5078428;27;45369;-79
2023/01/04 08:37:47;;;;;;;;;0.00;0.00;;;;;-146.50;100.00;59256.41;5078222;27;45455;-79
2023/01/04 08:40:13;;;;;;;;;0.00;0.00;;;;;-146.50;100.00;59256.41;5077837;28;45592;-80
2023/01/04 08:42:38;;;;;;;;;1.00;0.00;;;;;-146.50;100.00;59256.41;5077779;27;45396;-79
2023/01/04 08:45:04;;;;;;;;;0.00;0.00;;;;;-146.50;100.00;59256.41;5078239;27;45444;-79
2023/01/04 08:47:31;;;;;;;;;1.00;0.00;;;;;-146.50;100.00;59256.41;5078056;27;45396;-79
2023/01/04 08:49:57;;;;;;;;;0.00;0.00;;;;;-146.50;100.00;59256.41;5076598;28;47344;-79
2023/01/04 08:52:23;;;;;;;;;0.00;0.00;;;;;-146.50;100.00;59256.41;5078009;27;45298;-79
2023/01/04 08:54:49;;;;;;;;;0.00;0.00;;;;;-146.50;100.00;59256.41;5077629;27;45448;-80
2023/01/04 08:57:15;;;;;;;;;0.00;0.00;;;;;-146.50;100.00;59256.41;5077921;28;45299;-79
2023/01/04 08:59:40;;;;;;;;;0.00;0.00;;;;;-146.50;100.00;59256.41;5077921;27;45306;-80
2023/01/04 09:02:24;;;;;;;;;0.00;0.00;;;;;-146.50;100.00;59256.41;5077789;27;45498;-80
2023/01/04 09:04:50;;;;;;;;;0.00;0.00;;;;;-146.50;100.00;59256.41;5077894;27;45420;-79
2023/01/04 09:07:16;;;;;;;;;0.00;0.00;;;;;-146.50;100.00;59256.41;5078079;27;45313;-79
2023/01/04 09:09:42;;;;;;;;;0.00;0.00;;;;;-146.50;100.00;59256.41;5077659;27;45345;-80
2023/01/04 09:12:07;;;;;;;;;0.00;0.00;;;;;-146.50;100.00;59256.41;5079723;27;45446;-80
2023/01/04 09:14:33;;;;;;;;;0.00;0.00;;;;;-146.50;100.00;59256.41;5077478;27;45425;-79
2023/01/04 09:16:58;;;;;;;;;0.00;0.00;;;;;-146.50;100.00;59256.41;5077630;28;45451;-79
2023/01/04 09:19:23;;;;;;;;;0.00;0.00;;;;;-146.50;100.00;59256.41;5059552;28;46274;-79
2023/01/04 09:21:49;;;;;;;;;0.33;0.00;;;;;-146.50;100.00;59256.41;5077577;27;45466;-80
2023/01/04 09:24:14;;;;;;;;;0.00;0.00;;;;;-146.50;100.00;59256.41;5077821;28;45347;-80
2023/01/04 09:26:40;;;;;;;;;0.00;0.00;;;;;-146.50;100.00;59256.41;5076203;28;45316;-79
2023/01/04 09:29:05;;;;;;;;;0.00;0.00;;;;;-146.50;100.00;59256.41;5077076;27;46273;-81
2023/01/04 09:31:31;;;;;;;;;0.00;0.00;;;;;-146.50;100.00;59256.41;5077352;27;45417;-80
2023/01/04 09:33:58;;;;;;;;;0.00;0.00;;;;;-146.50;100.00;59256.41;5042178;28;45451;-80
2023/01/04 09:36:24;;;;;;;;;0.00;0.00;;;;;-146.50;100.00;59256.41;5077645;27;45423;-81
2023/01/04 09:38:51;;;;;;;;;0.00;0.00;;;;;-146.50;100.00;59256.41;5075466;28;47363;-79
2023/01/04 09:41:25;;;;;;;;;0.00;0.00;;;;;-146.50;100.00;59256.41;5077038;27;45409;-80
2023/01/04 09:43:53;;;;;;;;;0.00;0.00;;;;;-146.50;100.00;59256.41;5076623;27;45319;-80
2023/01/04 09:46:49;;;;;;;;;0.00;0.00;;;;;-146.50;100.00;59256.41;5077242;27;45342;-80
2023/01/04 09:49:28;;;;;;;;;0.00;0.00;;;;;-146.50;100.00;59256.41;5077338;28;45532;-80
2023/01/04 09:52:03;;;;;;;;;0.00;0.00;;;;;-146.50;100.00;59256.41;5077283;27;45291;-80
2023/01/04 09:54:40;;;;;;;;;0.00;0.00;;;;;-146.50;100.00;59256.41;5076897;27;45395;-80
2023/01/04 09:57:17;;;;;;;;;0.00;0.00;;;;;-146.50;100.00;59256.41;5075733;28;45446;-80
2023/01/04 09:59:43;;;;;;;;;0.00;0.00;;;;;-146.50;100.00;59256.41;5076498;27;45512;-80
2023/01/04 10:02:20;;;;;;;;;0.00;0.00;;;;;-146.50;100.00;59256.41;5076739;27;45377;-79
2023/01/04 10:04:48;;;;;;;;;0.00;0.00;;;;;-146.50;100.00;59256.41;5076442;27;45392;-79
2023/01/04 10:07:27;;;;;;;;;0.00;0.00;;;;;-146.50;100.00;59256.41;5056427;28;45283;-79
2023/01/04 10:09:53;;;;;;;;;0.33;0.00;;;;;-146.50;100.00;59256.41;5055006;28;48569;-79
2023/01/04 10:12:46;;;;;;;;;0.00;0.00;;;;;-146.50;100.00;59256.41;5056413;28;45910;-78
2023/01/04 10:15:33;;;;;;;;;2.33;0.00;;;;;-146.50;100.00;59256.41;5062860;28;45367;-78
2023/01/04 10:18:16;;;;;;;;;0.00;0.00;;;;;-146.50;100.00;59256.41;5076343;28;45256;-78
2023/01/04 10:21:00;;;;;;;;;0.00;0.00;;;;;-146.50;100.00;59256.41;5075890;27;46150;-79
2023/01/04 10:23:38;;;;;;;;;2.67;1.00;;;;;-146.50;100.00;59256.41;5075128;28;45926;-79
2023/01/04 10:26:11;;;;;;;;;0.00;0.00;;;;;-146.50;100.00;59256.41;5076362;28;45447;-78
2023/01/04 10:28:45;;;;;;;;;1.67;1.67;;;;;-146.50;100.00;59256.41;5076100;28;45381;-78
2023/01/04 10:31:32;;;;;;;;;3.00;1.33;;;;;-146.50;100.00;59256.41;5076023;28;47422;-79
2023/01/04 10:34:28;;;;;;;;;1.00;1.00;;;;;-146.50;100.00;59256.41;5085435;27;45737;-78
2023/01/04 10:36:58;;;;;;;;;0.00;0.00;;;;;-146.50;100.00;59256.41;5076203;28;45530;-78
2023/01/04 10:39:27;;;;;;;;;1.67;1.67;;;;;-146.50;100.00;59256.41;5076332;27;45614;-78
2023/01/04 10:41:59;;;;;;;;;1.00;1.00;;;;;-146.50;100.00;59256.41;5075914;27;45401;-78
2023/01/04 10:44:40;;;;;;;;;1.00;1.00;;;;;-146.50;100.00;59256.41;5075911;27;45338;-78
2023/01/04 10:47:18;;;;;;;;;1.00;0.00;;;;;-146.50;100.00;59256.41;5076117;27;45353;-78
2023/01/04 10:49:51;;;;;;;;;0.33;0.33;;;;;-146.50;100.00;59256.41;5076007;27;45546;-79
2023/01/04 10:52:50;;;;;;;;;0.67;0.00;;;;;-146.50;100.00;59256.41;5076447;27;45356;-79
2023/01/04 10:55:19;;;;;;;;;0.00;0.00;;;;;-146.50;100.00;59256.41;5076425;27;45329;-78
2023/01/04 10:57:58;;;;;;;;;0.00;0.00;;;;;-146.50;100.00;59256.41;5076311;27;45472;-78
2023/01/04 11:00:37;;;;;;;;;0.00;0.00;;;;;-146.50;100.00;59256.41;5077858;27;45349;-79
2023/01/04 11:03:26;;;;;;;;;0.00;0.00;;;;;-146.50;100.00;59256.41;5077541;27;46511;-79
2023/01/04 11:06:16;;;;;;;;;0.00;0.00;;;;;-146.50;100.00;59256.41;5083258;27;45895;-79
2023/01/04 11:08:50;;;;;;;;;0.00;0.00;;;;;-146.50;100.00;59256.41;5082371;27;45380;-78
2023/01/04 11:11:23;;;;;;;;;0.00;0.00;;;;;-146.50;100.00;59256.41;5077656;27;45362;-79
2023/01/04 11:13:49;;;;;;;;;1.00;1.00;;;;;-146.50;100.00;59256.41;5076597;27;46659;-78
2023/01/04 11:16:15;;;;;;;;;0.00;0.00;;;;;-146.50;100.00;59256.41;5074391;27;45470;-79
2023/01/04 11:18:42;;;;;;;;;1.00;1.00;;;;;-146.50;100.00;59256.41;5074894;27;45335;-79
2023/01/04 11:21:11;;;;;;;;;0.00;0.00;;;;;-146.50;100.00;59256.41;5075195;27;45405;-78
2023/01/04 11:23:37;;;;;;;;;1.00;1.00;;;;;-146.50;100.00;59256.41;5075260;27;45958;-79
2023/01/04 11:26:17;;;;;;;;;2.00;0.67;;;;;-146.50;100.00;59256.41;5090152;27;45419;-78
2023/01/04 11:28:43;;;;;;;;;0.67;0.67;;;;;-146.50;100.00;59256.41;5076287;27;45693;-77
2023/01/04 11:31:08;;;;;;;;;0.00;0.00;;;;;-146.50;100.00;59256.41;5074704;27;45582;-76
2023/01/04 11:34:03;;;;;;;;;1.00;0.00;;;;;-146.50;100.00;59256.41;5076153;27;47135;-77
2023/01/04 11:36:37;;;;;;;;;1.00;1.00;;;;;-146.50;100.00;59256.41;5068451;27;45674;-78
2023/01/04 11:39:24;;;;;;;;;1.00;0.00;;;;;-146.50;100.00;59256.41;5082003;27;45380;-77
2023/01/04 11:42:03;;;;;;;;;0.00;0.00;;;;;-146.50;100.00;59256.41;5076471;27;45588;-76
2023/01/04 11:44:29;;;;;;;;;1.00;1.00;;;;;-146.50;100.00;59256.41;5087708;27;46113;-78
2023/01/04 11:47:07;;;;;;;;;1.00;1.00;;;;;-146.50;100.00;59256.41;5085500;27;45322;-78
2023/01/04 11:49:36;;;;;;;;;0.00;0.00;;;;;-146.50;100.00;59256.41;5093400;27;45368;-78
2023/01/04 11:52:03;;;;;;;;;0.00;0.00;;;;;-146.50;100.00;59256.41;5095455;27;45384;-79
2023/01/04 11:54:29;;;;;;;;;0.33;0.00;;;;;-146.50;100.00;59256.41;5095033;27;45649;-77
2023/01/04 11:57:05;;;;;;;;;0.67;0.00;;;;;-146.50;100.00;59256.41;5094505;27;45410;-79
2023/01/04 11:59:31;;;;;;;;;1.00;1.00;;;;;-146.50;100.00;59256.41;5073776;27;45365;-79
2023/01/04 12:02:15;;;;;;;;;1.00;1.00;;;;;-146.50;100.00;59256.41;5069009;27;45446;-79
2023/01/04 12:04:41;;;;;;;;;1.00;1.00;;;;;-146.50;100.00;59256.41;5073177;27;45491;-76